RJTR(METAR)
12/16 15:58
METAR RJTR 160658Z AUTO 21012G22KT 10SM FEW100 12/02 A2975 RMK AO2
SLP078 T01240023 $=
戻る
トップページへ戻る
IMOC Co,.Ltd.